Time;durP1;ratioP1;P1;durP2;ratioP2;P2;SDS_P1;SDS_P2;PMS_P1;PMS_P2;Temp;Humidity;BMP_temperature;BMP_pressure;BME280_temperature;BME280_humidity;BME280_pressure;Samples;Min_cycle;Max_cycle;Signal;HPM_P1;HPM_P2
2023/09/14 04:22:33;;;;;;;4.85;2.40;;;;;;;15.45;100.00;100729.94;5089125;28;20752;-65
2023/09/14 04:24:59;;;;;;;3.75;2.40;;;;;;;15.46;100.00;100728.91;5088197;28;20064;-63
2023/09/14 04:27:25;;;;;;;4.63;2.70;;;;;;;15.47;100.00;100733.25;5087916;28;20056;-65
2023/09/14 04:29:50;;;;;;;4.03;2.60;;;;;;;15.41;100.00;100734.03;5089285;28;20036;-65
2023/09/14 04:32:15;;;;;;;6.38;2.88;;;;;;;15.42;100.00;100733.00;5089043;28;20071;-65
2023/09/14 04:34:41;;;;;;;4.13;3.22;;;;;;;15.42;100.00;100727.63;5089193;28;20080;-64
2023/09/14 04:37:07;;;;;;;5.85;3.55;;;;;;;15.48;100.00;100734.91;5087739;28;20036;-64
2023/09/14 04:39:34;;;;;;;4.90;3.42;;;;;;;15.43;100.00;100736.50;5087888;28;20036;-65
2023/09/14 04:42:00;;;;;;;9.23;4.30;;;;;;;15.41;100.00;100741.25;5087532;28;20037;-65
2023/09/14 04:44:26;;;;;;;5.68;4.97;;;;;;;15.35;100.00;100747.38;5087723;28;20043;-65
2023/09/14 04:46:51;;;;;;;8.90;4.40;;;;;;;15.40;100.00;100743.09;5088966;28;20131;-64
2023/09/14 04:49:16;;;;;;;6.10;3.88;;;;;;;15.34;100.00;100749.22;5088913;28;20122;-65
2023/09/14 04:51:42;;;;;;;5.32;4.35;;;;;;;15.34;100.00;100756.47;5087568;28;20032;-64
2023/09/14 04:54:08;;;;;;;9.52;7.30;;;;;;;15.30;100.00;100757.84;5087410;28;20042;-63
2023/09/14 04:56:33;;;;;;;6.25;4.00;;;;;;;15.31;100.00;100760.34;5087465;28;20036;-65
2023/09/14 04:59:00;;;;;;;5.70;4.20;;;;;;;15.23;100.00;100763.16;5087445;28;20036;-65
2023/09/14 05:01:25;;;;;;;4.60;3.75;;;;;;;15.18;100.00;100755.66;5086442;28;20040;-65
2023/09/14 05:03:51;;;;;;;6.20;3.67;;;;;;;15.23;100.00;100756.97;5087151;28;20032;-65
2023/09/14 05:06:16;;;;;;;5.00;3.63;;;;;;;15.17;100.00;100767.44;5087353;28;20036;-65
2023/09/14 05:08:42;;;;;;;5.03;3.05;;;;;;;15.15;100.00;100768.66;5087310;28;20032;-65
2023/09/14 05:11:08;;;;;;;4.20;3.17;;;;;;;15.12;99.92;100763.66;5087254;28;20033;-64
2023/09/14 05:13:33;;;;;;;4.38;3.13;;;;;;;15.01;99.98;100772.22;5086895;28;20032;-65
2023/09/14 05:15:58;;;;;;;7.85;3.78;;;;;;;14.99;100.00;100760.81;5088432;28;20473;-63
2023/09/14 05:18:26;;;;;;;5.55;3.05;;;;;;;15.03;100.00;100770.16;5087162;28;20127;-65
2023/09/14 05:20:52;;;;;;;7.93;3.17;;;;;;;15.00;100.00;100775.94;5086852;28;20174;-65
2023/09/14 05:23:17;;;;;;;4.45;3.00;;;;;;;14.96;100.00;100775.47;5086758;28;20376;-65
2023/09/14 05:25:45;;;;;;;4.20;2.70;;;;;;;14.90;100.00;100776.22;5086785;28;20040;-62
2023/09/14 05:28:11;;;;;;;3.25;2.38;;;;;;;14.91;99.76;100780.56;5086957;28;20036;-64
2023/09/14 05:30:38;;;;;;;2.92;2.38;;;;;;;14.95;99.92;100781.03;5086921;28;20242;-65
2023/09/14 05:33:04;;;;;;;5.78;2.53;;;;;;;14.89;99.67;100780.75;5077823;28;20085;-66
2023/09/14 05:35:30;;;;;;;4.55;2.33;;;;;;;14.90;100.00;100786.94;5073188;28;20083;-66
2023/09/14 05:37:55;;;;;;;5.75;2.42;;;;;;;14.70;100.00;100800.09;5073198;28;20056;-65
2023/09/14 05:40:21;;;;;;;3.60;2.25;;;;;;;14.82;99.75;100790.56;5056522;28;20105;-65
2023/09/14 05:42:47;;;;;;;4.35;2.58;;;;;;;14.74;100.00;100792.53;5074227;28;20137;-65
2023/09/14 05:45:12;;;;;;;3.60;2.28;;;;;;;14.83;100.00;100799.44;5073101;28;20063;-65
2023/09/14 05:47:39;;;;;;;3.67;2.10;;;;;;;14.82;100.00;100801.28;5073108;28;20060;-63
2023/09/14 05:50:09;;;;;;;3.67;2.25;;;;;;;14.80;100.00;100797.97;5074540;28;20177;-65
2023/09/14 05:52:35;;;;;;;3.03;2.42;;;;;;;14.81;100.00;100796.13;5072771;28;20151;-65
2023/09/14 05:55:03;;;;;;;4.18;2.17;;;;;;;14.78;100.00;100807.22;5073137;28;20025;-64
2023/09/14 05:57:31;;;;;;;4.45;2.20;;;;;;;14.81;100.00;100801.50;5072880;28;20417;-66
2023/09/14 05:59:58;;;;;;;3.55;2.20;;;;;;;14.73;100.00;100809.63;5073012;28;20103;-67
2023/09/14 06:02:24;;;;;;;4.97;2.03;;;;;;;14.78;100.00;100809.88;5073598;28;20037;-65
2023/09/14 06:04:50;;;;;;;4.88;2.08;;;;;;;14.74;100.00;100804.09;5074178;28;20055;-65
2023/09/14 06:07:16;;;;;;;5.15;2.22;;;;;;;14.81;100.00;100801.50;5072724;28;20029;-65
2023/09/14 06:09:41;;;;;;;4.03;2.33;;;;;;;14.75;100.00;100815.63;5072727;28;20040;-63
2023/09/14 06:12:07;;;;;;;4.25;1.98;;;;;;;14.87;100.00;100816.84;5072508;28;20036;-66
2023/09/14 06:14:33;;;;;;;3.55;1.85;;;;;;;14.81;100.00;100805.00;5072587;28;20048;-66
2023/09/14 06:16:59;;;;;;;4.85;2.10;;;;;;;14.87;100.00;100814.16;5073736;28;20388;-66
2023/09/14 06:19:24;;;;;;;2.88;1.90;;;;;;;14.91;100.00;100818.94;5073816;28;20105;-66
2023/09/14 06:21:50;;;;;;;3.40;2.08;;;;;;;14.94;99.63;100825.78;5070101;28;20141;-66
2023/09/14 06:24:17;;;;;;;4.07;2.00;;;;;;;14.96;99.64;100818.38;5053534;28;20045;-66
2023/09/14 06:26:43;;;;;;;4.00;1.83;;;;;;;14.96;99.65;100822.91;5053623;28;20041;-65
2023/09/14 06:29:12;;;;;;;4.82;2.03;;;;;;;14.95;100.00;100823.94;5053611;28;20496;-53
2023/09/14 06:31:38;;;;;;;4.25;1.70;;;;;;;15.01;99.25;100826.69;5053489;28;20518;-56
2023/09/14 06:34:03;;;;;;;3.17;1.95;;;;;;;15.09;99.95;100820.38;5053287;28;20041;-53
2023/09/14 06:36:30;;;;;;;3.13;2.17;;;;;;;15.17;98.00;100813.03;5052179;28;20052;-54
2023/09/14 06:38:55;;;;;;;4.00;2.30;;;;;;;15.15;97.36;100811.59;5053383;28;20107;-53
2023/09/14 06:41:21;;;;;;;4.25;1.90;;;;;;;15.18;97.12;100816.56;5053260;28;20053;-54
2023/09/14 06:43:46;;;;;;;4.78;1.98;;;;;;;15.26;95.93;100821.84;5052318;28;20033;-54
2023/09/14 06:46:12;;;;;;;6.30;2.45;;;;;;;15.24;94.70;100818.47;5052916;28;20079;-53
2023/09/14 06:48:38;;;;;;;2.90;1.77;;;;;;;15.28;94.86;100816.25;5053232;28;20059;-53
2023/09/14 06:51:05;;;;;;;3.40;1.70;;;;;;;15.33;94.87;100808.47;5053210;28;20033;-55
2023/09/14 06:53:31;;;;;;;5.28;2.10;;;;;;;15.30;94.90;100811.53;5052814;28;20415;-57
2023/09/14 06:55:57;;;;;;;3.97;2.10;;;;;;;15.35;95.06;100818.00;5053004;28;20049;-57
2023/09/14 06:58:22;;;;;;;3.00;1.58;;;;;;;15.44;94.74;100816.84;5053175;28;20041;-56
2023/09/14 07:00:47;;;;;;;3.88;1.95;;;;;;;15.49;95.28;100813.59;5063661;28;20051;-55
2023/09/14 07:03:13;;;;;;;4.15;2.10;;;;;;;15.59;94.96;100803.38;5072586;28;20032;-56
2023/09/14 07:05:38;;;;;;;2.60;1.60;;;;;;;15.67;94.44;100807.81;5072770;28;20450;-52
2023/09/14 07:08:04;;;;;;;3.58;2.08;;;;;;;15.65;93.66;100810.69;5072773;28;20064;-52
2023/09/14 07:10:29;;;;;;;3.00;1.90;;;;;;;15.62;93.26;100818.28;5072616;28;20048;-55
2023/09/14 07:12:55;;;;;;;3.88;1.90;;;;;;;15.61;92.76;100806.69;5072404;28;20495;-54
2023/09/14 07:15:21;;;;;;;4.55;1.92;;;;;;;15.65;92.92;100812.53;5072558;28;20522;-56
2023/09/14 07:17:46;;;;;;;3.38;2.03;;;;;;;15.76;93.03;100817.38;5072722;28;20036;-52
2023/09/14 07:20:12;;;;;;;2.63;2.17;;;;;;;15.83;92.22;100820.94;5072480;28;20483;-53
2023/09/14 07:22:37;;;;;;;3.17;2.20;;;;;;;15.84;91.26;100814.53;5072244;28;20040;-52
2023/09/14 07:25:04;;;;;;;2.65;1.75;;;;;;;15.97;91.01;100817.38;5072433;28;20048;-55
2023/09/14 07:27:30;;;;;;;3.72;2.10;;;;;;;15.97;90.68;100813.81;5072501;28;20435;-56
2023/09/14 07:29:55;;;;;;;2.70;1.83;;;;;;;16.00;90.97;100824.19;5072403;28;20051;-56
2023/09/14 07:32:21;;;;;;;2.83;1.83;;;;;;;16.13;90.62;100818.94;5072051;28;20048;-54
2023/09/14 07:34:46;;;;;;;5.70;2.08;;;;;;;16.17;90.19;100822.03;5072226;28;20047;-55
2023/09/14 07:37:11;;;;;;;4.47;2.03;;;;;;;16.14;89.45;100822.44;5072112;28;20071;-56
2023/09/14 07:39:37;;;;;;;3.65;1.50;;;;;;;16.12;89.86;100821.81;5072187;28;20036;-53
2023/09/14 07:42:02;;;;;;;3.67;1.75;;;;;;;16.26;90.19;100828.94;5072031;28;20068;-53
2023/09/14 07:44:28;;;;;;;3.65;2.00;;;;;;;16.29;89.50;100825.84;5072196;28;20055;-53
2023/09/14 07:46:53;;;;;;;3.10;1.85;;;;;;;16.50;89.42;100828.50;5072049;28;20040;-51
2023/09/14 07:49:18;;;;;;;3.60;1.70;;;;;;;16.36;88.92;100821.34;5070783;28;20048;-53
2023/09/14 07:51:44;;;;;;;4.60;1.70;;;;;;;16.50;89.03;100828.50;5071930;28;20114;-54
2023/09/14 07:54:09;;;;;;;3.85;1.83;;;;;;;16.66;88.14;100830.00;5071775;28;20056;-51
2023/09/14 07:56:35;;;;;;;3.72;2.03;;;;;;;16.51;89.54;100838.22;5071696;28;20056;-50
2023/09/14 07:59:00;;;;;;;2.95;1.88;;;;;;;16.48;89.70;100835.06;5071887;28;20563;-53
2023/09/14 08:01:26;;;;;;;4.00;1.55;;;;;;;16.78;88.06;100835.69;5072008;28;20036;-55
2023/09/14 08:03:51;;;;;;;4.25;1.83;;;;;;;16.84;88.02;100842.16;5071690;28;20036;-56
2023/09/14 08:06:18;;;;;;;2.78;1.73;;;;;;;16.82;87.45;100842.31;5071872;28;20407;-56
2023/09/14 08:08:45;;;;;;;4.82;1.80;;;;;;;16.76;87.75;100843.97;5071833;28;20028;-54
2023/09/14 08:11:11;;;;;;;3.10;2.08;;;;;;;16.89;88.04;100836.97;5071778;28;20040;-53
2023/09/14 08:13:36;;;;;;;3.17;1.92;;;;;;;17.09;88.27;100841.44;5071557;28;20407;-53
2023/09/14 08:16:03;;;;;;;3.80;1.83;;;;;;;17.15;86.51;100839.78;5071625;28;20043;-54
2023/09/14 08:18:29;;;;;;;3.88;1.90;;;;;;;17.22;86.12;100837.13;5071693;28;20039;-51
2023/09/14 08:20:54;;;;;;;5.03;2.08;;;;;;;17.27;86.16;100842.69;5071620;28;20033;-52
2023/09/14 08:23:20;;;;;;;3.15;1.80;;;;;;;17.11;86.06;100835.00;5071420;28;20062;-51
2023/09/14 08:25:46;;;;;;;4.10;1.90;;;;;;;17.13;87.49;100841.00;5071584;28;20102;-49
2023/09/14 08:28:17;;;;;;;3.58;1.60;;;;;;;17.29;85.99;100838.78;5071378;28;20036;-51
2023/09/14 08:30:43;;;;;;;3.17;1.80;;;;;;;17.21;85.78;100840.81;5066582;28;20036;-55
2023/09/14 08:33:10;;;;;;;6.47;1.80;;;;;;;17.10;86.27;100834.19;5061618;28;20016;-53
2023/09/14 08:35:36;;;;;;;2.17;1.50;;;;;;;17.05;86.32;100837.47;5060171;28;20173;-51
2023/09/14 08:38:03;;;;;;;3.03;1.60;;;;;;;17.13;86.52;100838.31;5061641;28;20036;-53
2023/09/14 08:40:29;;;;;;;2.42;1.67;;;;;;;17.10;86.80;100839.56;5062263;28;20091;-52
2023/09/14 08:42:56;;;;;;;3.08;1.73;;;;;;;17.20;86.96;100844.56;5060160;28;20060;-54
2023/09/14 08:45:30;;;;;;;3.72;1.80;;;;;;;17.17;86.97;100842.28;5061365;28;20548;-50
2023/09/14 08:47:57;;;;;;;3.15;1.95;;;;;;;17.25;86.59;100834.84;5062047;28;20055;-53
2023/09/14 08:50:24;;;;;;;3.28;1.83;;;;;;;17.32;86.55;100832.16;5060930;28;20105;-52
2023/09/14 08:52:50;;;;;;;3.28;1.83;;;;;;;17.23;86.69;100830.69;5060035;28;20460;-51
2023/09/14 08:55:18;;;;;;;4.15;2.25;;;;;;;17.34;86.14;100833.63;5061758;28;20033;-53
2023/09/14 08:57:45;;;;;;;2.72;2.08;;;;;;;17.48;86.09;100830.97;5060027;28;20040;-53
2023/09/14 09:00:15;;;;;;;5.33;2.10;;;;;;;17.54;85.04;100835.50;5061125;28;20024;-55
2023/09/14 09:02:52;;;;;;;2.92;1.70;;;;;;;17.71;85.10;100825.19;5061667;28;20060;-52
2023/09/14 09:05:19;;;;;;;2.75;1.95;;;;;;;17.81;84.66;100825.66;5062128;28;20040;-52
2023/09/14 09:07:48;;;;;;;3.10;1.77;;;;;;;17.96;83.63;100822.75;5061351;28;20037;-52
2023/09/14 09:10:25;;;;;;;3.15;1.65;;;;;;;18.09;83.91;100826.28;5064442;28;20071;-54
2023/09/14 09:12:51;;;;;;;;;;;;;;;18.27;83.20;100831.03;5064844;28;20037;-51
2023/09/14 09:15:17;;;;;;;3.17;1.60;;;;;;;18.37;81.47;100827.88;5063660;28;19908;-55
2023/09/14 09:17:46;;;;;;;3.15;1.80;;;;;;;18.51;81.28;100826.81;5065645;28;20443;-53
2023/09/14 09:20:14;;;;;;;3.00;1.75;;;;;;;18.56;79.79;100820.78;5064640;28;20570;-52
2023/09/14 09:22:43;;;;;;;4.72;1.98;;;;;;;18.70;79.71;100817.03;5063299;28;20456;-50
2023/09/14 09:25:10;;;;;;;2.85;1.70;;;;;;;18.83;79.54;100825.09;5064669;28;20112;-51
2023/09/14 09:27:38;;;;;;;3.38;1.50;;;;;;;19.04;79.89;100820.44;5065276;28;20041;-54
2023/09/14 09:30:04;;;;;;;3.55;1.77;;;;;;;19.10;78.18;100823.09;5063356;28;20499;-54
2023/09/14 09:32:29;;;;;;;2.92;1.98;;;;;;;19.20;76.92;100812.69;5064181;28;20124;-57
2023/09/14 09:34:55;;;;;;;2.25;1.60;;;;;;;19.44;77.09;100811.09;5064991;28;20112;-51
2023/09/14 09:37:20;;;;;;;4.03;2.15;;;;;;;19.62;74.56;100814.94;5063059;28;20041;-50
2023/09/14 09:39:46;;;;;;;3.38;1.73;;;;;;;19.76;72.34;100819.22;5063372;28;20114;-52
2023/09/14 09:42:12;;;;;;;2.33;1.75;;;;;;;20.03;72.10;100817.13;5063886;28;20028;-53
2023/09/14 09:44:39;;;;;;;2.97;1.92;;;;;;;20.20;69.34;100820.88;5065053;28;20048;-54
2023/09/14 09:47:05;;;;;;;2.97;1.50;;;;;;;20.39;66.98;100815.50;5062618;28;20098;-50
2023/09/14 09:49:31;;;;;;;2.80;1.58;;;;;;;20.57;65.29;100821.81;5063970;28;20116;-50
2023/09/14 09:51:57;;;;;;;2.83;2.33;;;;;;;20.71;62.48;100821.66;5063120;28;20116;-52
2023/09/14 09:54:24;;;;;;;4.88;1.73;;;;;;;20.86;62.43;100822.94;5064719;28;20511;-54
2023/09/14 09:56:51;;;;;;;2.38;1.50;;;;;;;20.97;59.66;100815.91;5063378;28;20036;-56
2023/09/14 09:59:17;;;;;;;2.88;1.60;;;;;;;21.09;60.06;100818.69;5063040;28;20032;-53
2023/09/14 10:01:47;;;;;;;2.40;1.70;;;;;;;21.43;57.63;100814.47;5064736;28;20027;-50
2023/09/14 10:04:14;;;;;;;4.20;1.60;;;;;;;21.97;56.34;100806.31;5063635;28;20029;-53
2023/09/14 10:06:43;;;;;;;2.42;1.77;;;;;;;22.29;53.66;100806.84;5062578;28;20052;-53
2023/09/14 10:09:11;;;;;;;2.58;1.52;;;;;;;22.89;53.25;100803.81;5074039;28;20828;-51
2023/09/14 10:11:38;;;;;;;3.08;1.60;;;;;;;23.34;50.83;100808.47;5073890;28;20159;-53
2023/09/14 10:14:04;;;;;;;2.70;1.23;;;;;;;23.81;49.81;100803.63;5073630;28;20032;-51
2023/09/14 10:16:40;;;;;;;2.28;1.50;;;;;;;23.85;49.49;100807.47;5073899;28;20115;-53
2023/09/14 10:19:06;;;;;;;2.80;1.42;;;;;;;24.29;47.54;100805.72;5065739;28;20554;-54
2023/09/14 10:21:32;;;;;;;3.78;1.52;;;;;;;24.77;46.31;100801.47;5056403;28;20021;-53
2023/09/14 10:23:59;;;;;;;2.00;1.40;;;;;;;24.87;46.33;100806.22;5053676;28;20033;-53
2023/09/14 10:26:27;;;;;;;1.88;1.30;;;;;;;24.71;46.46;100794.31;5053876;28;20419;-52
2023/09/14 10:28:54;;;;;;;1.98;1.30;;;;;;;24.50;47.13;100801.41;5053544;28;20048;-53
2023/09/14 10:31:23;;;;;;;1.73;1.40;;;;;;;24.53;46.75;100794.63;5053697;28;20055;-54
2023/09/14 10:33:51;;;;;;;2.10;1.63;;;;;;;24.91;45.82;100788.31;5053339;28;20124;-56
2023/09/14 10:36:16;;;;;;;2.42;1.50;;;;;;;24.63;46.60;100784.69;5053551;28;20028;-51
2023/09/14 10:38:45;;;;;;;1.80;1.30;;;;;;;25.50;45.10;100776.66;5053548;28;20032;-53
2023/09/14 10:41:14;;;;;;;2.22;1.40;;;;;;;25.60;45.19;100780.28;5053485;28;20032;-55
2023/09/14 10:43:41;;;;;;;2.45;1.60;;;;;;;26.21;43.00;100782.66;5053144;28;20032;-53
2023/09/14 10:46:16;;;;;;;2.37;1.70;;;;;;;25.99;43.45;100780.06;5053381;28;20041;-51
2023/09/14 10:48:42;;;;;;;1.85;1.50;;;;;;;25.90;43.51;100781.66;5053389;28;20036;-50
2023/09/14 10:51:10;;;;;;;2.10;1.50;;;;;;;26.90;42.27;100767.97;5053090;28;20032;-51
2023/09/14 10:53:35;;;;;;;1.70;1.30;;;;;;;27.21;41.40;100775.19;5053026;28;20032;-53
2023/09/14 10:56:02;;;;;;;1.67;1.35;;;;;;;27.23;42.37;100766.72;5053107;28;20033;-55
2023/09/14 10:58:40;;;;;;;2.15;1.42;;;;;;;27.99;40.17;100766.75;5053080;28;20044;-51
2023/09/14 11:01:10;;;;;;;3.97;1.58;;;;;;;28.10;39.34;100764.78;5053121;28;20167;-56
2023/09/14 11:04:05;;;;;;;2.25;1.77;;;;;;;27.89;39.80;100760.44;5052778;28;20043;-55
2023/09/14 11:06:51;;;;;;;2.33;1.40;;;;;;;28.23;39.71;100755.97;5052908;28;20480;-53
2023/09/14 11:09:18;;;;;;;1.75;1.45;;;;;;;28.42;40.29;100753.50;5052944;28;20044;-55
2023/09/14 11:11:45;;;;;;;2.10;1.40;;;;;;;29.13;38.41;100736.69;5052799;28;20502;-55
2023/09/14 11:14:13;;;;;;;2.30;1.60;;;;;;;27.91;39.44;100736.34;5052561;28;20116;-51
2023/09/14 11:16:44;;;;;;;2.85;1.30;;;;;;;28.96;38.58;100736.28;5052695;28;20025;-52
2023/09/14 11:19:10;;;;;;;2.63;1.52;;;;;;;29.29;37.62;100736.59;5052640;28;20048;-51
2023/09/14 11:21:35;;;;;;;3.30;1.80;;;;;;;29.47;37.54;100733.13;5052598;28;20033;-54
2023/09/14 11:24:04;;;;;;;1.80;1.40;;;;;;;29.70;36.86;100737.91;5052516;28;20033;-54
2023/09/14 11:26:33;;;;;;;2.17;1.58;;;;;;;28.71;38.37;100731.72;5052498;28;20404;-54
2023/09/14 11:29:00;;;;;;;3.30;1.63;;;;;;;28.80;38.25;100730.03;5052514;28;20047;-52
2023/09/14 11:31:43;;;;;;;1.83;1.30;;;;;;;29.63;36.80;100725.63;5051971;28;20049;-52
2023/09/14 11:34:14;;;;;;;2.97;1.50;;;;;;;29.72;37.82;100730.19;5052329;28;20632;-52
2023/09/14 11:36:41;;;;;;;3.45;1.50;;;;;;;29.81;37.00;100716.69;5052501;28;20040;-54
2023/09/14 11:39:13;;;;;;;2.45;1.58;;;;;;;30.59;35.76;100721.00;5052423;28;20025;-52
2023/09/14 11:41:48;;;;;;;1.98;1.40;;;;;;;30.08;37.53;100715.28;5052363;28;20107;-51
2023/09/14 11:44:13;;;;;;;2.53;1.40;;;;;;;30.84;35.10;100719.03;5051855;28;20032;-55
2023/09/14 11:46:39;;;;;;;2.53;1.80;;;;;;;30.33;34.99;100717.78;5052187;28;20411;-53
2023/09/14 11:49:05;;;;;;;2.27;1.80;;;;;;;30.57;35.15;100722.41;5052356;28;20044;-52
2023/09/14 11:51:31;;;;;;;3.60;1.70;;;;;;;30.68;35.31;100710.19;5052142;28;20049;-57
2023/09/14 11:53:59;;;;;;;2.83;1.80;;;;;;;30.74;34.32;100712.56;5052097;28;20032;-58
2023/09/14 11:56:30;;;;;;;2.80;1.58;;;;;;;30.96;35.18;100714.72;5052020;28;20041;-57
2023/09/14 11:59:00;;;;;;;2.67;1.70;;;;;;;30.99;35.55;100711.38;5052030;28;20116;-57
2023/09/14 12:01:27;;;;;;;1.88;1.65;;;;;;;31.45;33.59;100707.09;5051985;28;20419;-58
2023/09/14 12:03:53;;;;;;;3.22;1.65;;;;;;;31.85;33.25;100714.66;5050341;28;20689;-55
2023/09/14 12:06:19;;;;;;;2.22;1.52;;;;;;;30.10;35.89;100710.34;5051702;28;20123;-52
2023/09/14 12:08:47;;;;;;;3.40;1.73;;;;;;;30.61;34.71;100712.47;5051648;28;20516;-55
2023/09/14 12:11:13;;;;;;;2.50;1.50;;;;;;;30.67;35.26;100709.38;5051857;28;20403;-56
2023/09/14 12:13:54;;;;;;;3.05;1.90;;;;;;;31.14;34.22;100707.56;5051695;28;20036;-56
2023/09/14 12:16:21;;;;;;;2.20;1.65;;;;;;;31.44;33.98;100698.03;5051815;28;20033;-55
2023/09/14 12:18:48;;;;;;;3.20;1.70;;;;;;;32.04;32.29;100695.28;5051756;28;20032;-56
2023/09/14 12:21:14;;;;;;;3.10;1.45;;;;;;;32.05;32.70;100696.91;5051759;28;20102;-55
2023/09/14 12:23:44;;;;;;;2.00;1.40;;;;;;;32.08;33.04;100689.97;5064198;28;20045;-55
2023/09/14 12:26:13;;;;;;;4.80;1.60;;;;;;;32.04;31.85;100695.28;5071579;28;20047;-51
2023/09/14 12:28:40;;;;;;;2.65;1.50;;;;;;;31.28;33.73;100688.41;5071859;28;20040;-51
2023/09/14 12:31:07;;;;;;;2.20;1.58;;;;;;;30.61;33.96;100693.22;5071668;28;20051;-51
2023/09/14 12:33:32;;;;;;;2.85;1.67;;;;;;;31.43;32.75;100687.31;5071485;28;20040;-54
2023/09/14 12:35:58;;;;;;;5.10;1.60;;;;;;;31.74;32.34;100682.88;5071784;28;20079;-59
2023/09/14 12:38:23;;;;;;;2.27;2.00;;;;;;;31.14;32.88;100684.75;5071772;28;20037;-54
2023/09/14 12:40:49;;;;;;;3.47;2.00;;;;;;;32.05;31.74;100668.56;5071685;28;20437;-56
2023/09/14 12:43:17;;;;;;;2.40;1.80;;;;;;;31.22;33.25;100670.31;5073395;28;20054;-52
2023/09/14 12:45:42;;;;;;;2.35;1.83;;;;;;;31.09;33.84;100682.88;5075560;28;20282;-53
2023/09/14 12:48:08;;;;;;;2.57;1.70;;;;;;;30.90;33.05;100677.41;5075579;28;20044;-55
2023/09/14 12:50:37;;;;;;;2.00;1.70;;;;;;;31.82;33.07;100665.72;5075514;28;20052;-53
2023/09/14 12:53:10;;;;;;;2.90;1.67;;;;;;;31.79;32.77;100668.25;5075244;28;20048;-54
2023/09/14 12:55:46;;;;;;;2.63;1.85;;;;;;;31.63;32.23;100661.38;5075219;28;20052;-55
2023/09/14 12:58:12;;;;;;;2.15;1.65;;;;;;;31.86;31.33;100661.19;5075320;28;20059;-52
2023/09/14 13:00:39;;;;;;;2.83;1.60;;;;;;;31.70;31.53;100653.53;5075386;28;20484;-56
2023/09/14 13:03:08;;;;;;;;;;;;;;;31.57;31.41;100653.22;5075470;28;20043;-55
2023/09/14 13:05:34;;;;;;;2.33;1.50;;;;;;;32.26;31.22;100647.72;5075205;28;19923;-53
2023/09/14 13:08:01;;;;;;;2.20;1.73;;;;;;;31.91;32.01;100635.50;5075174;28;20119;-56
2023/09/14 13:10:28;;;;;;;3.08;1.45;;;;;;;31.76;32.56;100638.53;5074998;28;20044;-56
2023/09/14 13:13:01;;;;;;;3.35;1.40;;;;;;;31.79;32.68;100635.19;5074740;28;20048;-56
2023/09/14 13:15:29;;;;;;;2.72;1.58;;;;;;;32.27;31.75;100630.03;5074601;28;20044;-55
2023/09/14 13:18:01;;;;;;;2.10;1.70;;;;;;;31.68;32.47;100637.28;5075047;28;20051;-54
2023/09/14 13:20:26;;;;;;;3.45;1.60;;;;;;;31.56;32.50;100635.06;5075038;28;20074;-52
2023/09/14 13:22:53;;;;;;;2.60;1.83;;;;;;;31.56;31.90;100635.06;5074741;28;20048;-53
2023/09/14 13:25:19;;;;;;;2.00;1.50;;;;;;;32.23;31.45;100633.75;5074729;28;20402;-52
2023/09/14 13:27:44;;;;;;;2.25;1.45;;;;;;;31.99;31.61;100632.03;5074971;28;20060;-55
2023/09/14 13:30:11;;;;;;;2.63;1.67;;;;;;;32.05;31.14;100625.28;5074852;28;20399;-55
2023/09/14 13:32:42;;;;;;;2.67;1.63;;;;;;;31.80;31.28;100623.88;5074487;28;20028;-52
2023/09/14 13:35:09;;;;;;;3.33;1.83;;;;;;;31.64;31.86;100618.97;5074748;28;20408;-52
2023/09/14 13:37:35;;;;;;;3.03;1.55;;;;;;;32.18;31.46;100628.34;5074774;28;20086;-52
2023/09/14 13:40:07;;;;;;;2.55;1.48;;;;;;;32.24;31.06;100618.84;5074631;28;20029;-54
2023/09/14 13:42:32;;;;;;;1.85;1.40;;;;;;;32.65;30.98;100614.03;5074384;28;20039;-54
2023/09/14 13:44:58;;;;;;;2.50;1.60;;;;;;;31.71;30.96;100611.09;5074601;28;20036;-55
2023/09/14 13:47:23;;;;;;;1.77;1.37;;;;;;;31.42;31.00;100603.13;5074357;28;20531;-55
2023/09/14 13:49:49;;;;;;;2.43;1.60;;;;;;;32.38;29.57;100605.88;5074621;28;20094;-55
2023/09/14 13:52:14;;;;;;;1.87;1.30;;;;;;;31.84;30.74;100613.06;5074022;28;20106;-55
2023/09/14 13:54:39;;;;;;;3.03;1.53;;;;;;;31.73;30.83;100604.16;5070649;28;20045;-54
2023/09/14 13:57:07;;;;;;;2.33;1.27;;;;;;;31.56;31.66;100602.03;5062920;28;20040;-55
2023/09/14 13:59:32;;;;;;;1.50;1.30;;;;;;;30.52;32.45;100605.94;5062399;28;20066;-54
2023/09/14 14:01:58;;;;;;;1.93;1.40;;;;;;;29.70;33.24;100597.09;5062492;28;20038;-54
2023/09/14 14:04:24;;;;;;;4.20;1.50;;;;;;;29.12;35.13;100599.88;5062178;28;20041;-49
2023/09/14 14:06:49;;;;;;;2.03;1.40;;;;;;;29.11;34.81;100598.22;5064250;28;20041;-56
2023/09/14 14:09:17;;;;;;;2.07;1.53;;;;;;;28.08;35.58;100594.50;5056425;28;20055;-54
2023/09/14 14:11:44;;;;;;;3.88;1.70;;;;;;;27.61;36.70;100590.28;5056245;28;20041;-55
2023/09/14 14:14:09;;;;;;;3.90;1.38;;;;;;;27.20;37.64;100598.56;5061432;28;20043;-53
2023/09/14 14:16:34;;;;;;;1.88;1.25;;;;;;;26.48;38.08;100594.13;5063469;28;20033;-53
2023/09/14 14:19:00;;;;;;;4.05;1.50;;;;;;;26.95;39.50;100591.16;5063469;28;20490;-52
2023/09/14 14:21:29;;;;;;;3.10;1.50;;;;;;;26.33;38.58;100594.03;5064330;28;20035;-60
2023/09/14 14:23:55;;;;;;;2.35;1.27;;;;;;;26.55;38.91;100591.97;5062996;28;20037;-57
2023/09/14 14:26:21;;;;;;;3.22;1.40;;;;;;;26.05;39.29;100598.88;5062513;28;20173;-54
2023/09/14 14:28:46;;;;;;;2.42;1.50;;;;;;;25.98;40.85;100590.94;5064573;28;20037;-55
2023/09/14 14:31:11;;;;;;;2.78;1.20;;;;;;;25.84;40.50;100587.06;5062794;28;20048;-56
2023/09/14 14:33:37;;;;;;;1.55;1.20;;;;;;;25.86;41.46;100584.06;5062379;28;20036;-60
2023/09/14 14:36:02;;;;;;;2.55;1.42;;;;;;;25.87;41.69;100594.69;5062771;28;20039;-60
2023/09/14 14:38:28;;;;;;;1.92;1.23;;;;;;;25.72;41.81;100580.97;5055364;28;20585;-60
2023/09/14 14:40:54;;;;;;;2.40;1.38;;;;;;;25.50;40.56;100585.78;5053519;28;20037;-58
2023/09/14 14:43:19;;;;;;;2.10;1.23;;;;;;;25.52;42.36;100578.97;5053059;28;20428;-61
2023/09/14 14:45:44;;;;;;;2.05;1.17;;;;;;;25.45;41.22;100583.84;5053139;28;20091;-61
2023/09/14 14:48:10;;;;;;;4.40;1.45;;;;;;;25.15;41.29;100578.97;5053340;28;20123;-60
2023/09/14 14:50:35;;;;;;;2.85;1.45;;;;;;;25.24;41.10;100584.78;5053143;28;20037;-60
2023/09/14 14:53:01;;;;;;;1.80;1.25;;;;;;;24.88;41.82;100581.75;5052853;28;20641;-59
2023/09/14 14:55:26;;;;;;;4.97;1.60;;;;;;;25.02;43.32;100585.66;5053036;28;20048;-60
2023/09/14 14:57:52;;;;;;;2.15;1.50;;;;;;;24.64;43.50;100579.34;5053005;28;20487;-59
2023/09/14 15:00:17;;;;;;;2.13;1.42;;;;;;;24.29;43.76;100576.25;5053069;28;20500;-60
2023/09/14 15:02:43;;;;;;;2.83;1.38;;;;;;;24.42;42.70;100575.88;5052807;28;20037;-56
2023/09/14 15:05:08;;;;;;;2.42;1.45;;;;;;;24.49;45.42;100571.03;5051906;28;20116;-59
2023/09/14 15:07:34;;;;;;;3.50;1.50;;;;;;;24.35;43.27;100573.34;5052913;28;20079;-60
2023/09/14 15:10:00;;;;;;;2.17;1.23;;;;;;;24.39;43.32;100576.41;5052897;28;20041;-58
2023/09/14 15:12:25;;;;;;;2.05;1.38;;;;;;;24.38;42.98;100574.72;5052419;28;20389;-59
2023/09/14 15:14:51;;;;;;;2.42;1.40;;;;;;;24.26;42.55;100569.44;5052737;28;20032;-59
2023/09/14 15:17:16;;;;;;;4.38;1.30;;;;;;;24.27;43.15;100578.41;5052703;28;20412;-59
2023/09/14 15:19:43;;;;;;;3.25;1.30;;;;;;;24.00;43.60;100575.66;5052699;28;20028;-59
2023/09/14 15:22:08;;;;;;;2.30;1.30;;;;;;;23.97;43.97;100573.44;5052231;28;20040;-58
2023/09/14 15:24:34;;;;;;;2.28;1.30;;;;;;;23.88;44.06;100570.34;5052625;28;20052;-56
2023/09/14 15:26:59;;;;;;;2.50;1.10;;;;;;;23.86;45.32;100560.78;5052547;28;20049;-58
2023/09/14 15:29:25;;;;;;;4.22;1.40;;;;;;;23.74;44.37;100569.09;5052485;28;20045;-57
2023/09/14 15:31:50;;;;;;;3.13;1.40;;;;;;;23.73;45.28;100560.06;5052437;28;20033;-59
2023/09/14 15:34:16;;;;;;;4.13;1.35;;;;;;;23.81;44.90;100567.00;5052272;28;20511;-63
2023/09/14 15:36:41;;;;;;;3.38;1.38;;;;;;;23.85;46.17;100570.84;5052268;28;20121;-57
2023/09/14 15:39:07;;;;;;;2.65;1.45;;;;;;;23.78;46.98;100562.88;5052383;28;20491;-52
2023/09/14 15:41:33;;;;;;;2.23;1.23;;;;;;;23.72;45.45;100563.06;5052435;28;20463;-55
2023/09/14 15:43:59;;;;;;;2.70;1.17;;;;;;;23.76;45.12;100566.94;5067687;28;20369;-59